This is the latest recevied weather packets stored in our database for station/object N8ESC. If no packets are shown the sender has not sent any weather packets the latest 10 day(s).
| Time | Temp. | Humidity | Pressure | Rain* | Wind** | Luminosity | Snow |
|---|---|---|---|---|---|---|---|
| 1777666537 | 4.44° C | 71% | 1015.8 hPa | 0 mm | - | 447 W/m² | - |
| 1777666233 | 4.44° C | 73% | 1015.7 hPa | 0 mm | - | 411 W/m² | - |
| 1777665627 | 3.89° C | 77% | 1016 hPa | 0 mm | - | 241 W/m² | - |
| 1777665325 | 3.33° C | 75% | 1016.3 hPa | 0 mm | - | 172 W/m² | - |
| 1777665020 | 3.33° C | 78% | 1016.2 hPa | 0 mm | - | 155 W/m² | - |
| 1777664412 | 3.89° C | 74% | 1015.9 hPa | 0 mm | - | 123 W/m² | - |
| 1777664110 | 4.44° C | 68% | 1016.1 hPa | 0 mm | - | 122 W/m² | - |
| 1777662901 | 5° C | 64% | 1016.2 hPa | 0 mm | - | 428 W/m² | - |
| 1777660468 | 6.11° C | 57% | 1015.4 hPa | 0 mm | - | 221 W/m² | - |
| 1777659861 | 5.56° C | 52% | 1015.3 hPa | 0 mm | - | 569 W/m² | - |
| 1777659558 | 5° C | 53% | 1015.4 hPa | 0 mm | - | 343 W/m² | - |
| 1777658952 | 5.56° C | 52% | 1015.3 hPa | 0 mm | - | 273 W/m² | - |
| 1777656832 | 5.56° C | 46% | 1015.4 hPa | 0 mm | - | 433 W/m² | - |
| 1777655918 | 5.56° C | 51% | 1015.6 hPa | 0 mm | - | 260 W/m² | - |
| 1777655312 | 5° C | 55% | 1015.3 hPa | 0 mm | - | 254 W/m² | - |
| 1777655009 | 5° C | 55% | 1015.6 hPa | 0 mm | - | 213 W/m² | - |
| 1777654404 | 5° C | 55% | 1015.6 hPa | 0 mm | - | 117 W/m² | - |
| 1777653799 | 5° C | 51% | 1015.6 hPa | 0 mm | - | 215 W/m² | - |
| 1777653494 | 5° C | 54% | 1015.5 hPa | 0 mm | - | 355 W/m² | - |
| 1777653192 | 5° C | 53% | 1015.5 hPa | 0 mm | - | 384 W/m² | - |
| 1777652888 | 5° C | 53% | 1015.6 hPa | 0 mm | - | 368 W/m² | - |
| 1777652585 | 5° C | 53% | 1015.5 hPa | 0 mm | - | 349 W/m² | - |
| 1777652281 | 5° C | 56% | 1015.5 hPa | 0 mm | - | 345 W/m² | - |
| 1777651979 | 5° C | 55% | 1015.5 hPa | 0 mm | - | 335 W/m² | - |
| 1777651675 | 4.44° C | 57% | 1015.4 hPa | 0 mm | - | 309 W/m² | - |
* Rain latest hour (hover to see other rain measurements)
** Current wind speed in m/s (hover to see current wind gust speed)